sensor_id;sensor_type;location;lat;lon;timestamp;temperature;humidity
67249;SHT31;63247;54.300;18.592;2023-04-03T00:00:07;1.91;82.59
67249;SHT31;63247;54.300;18.592;2023-04-03T00:02:32;1.85;81.96
67249;SHT31;63247;54.300;18.592;2023-04-03T00:04:58;1.89;81.40
67249;SHT31;63247;54.300;18.592;2023-04-03T00:07:23;1.91;81.53
67249;SHT31;63247;54.300;18.592;2023-04-03T00:09:49;1.94;81.13
67249;SHT31;63247;54.300;18.592;2023-04-03T00:12:14;1.89;80.21
67249;SHT31;63247;54.300;18.592;2023-04-03T00:14:40;1.87;80.55
67249;SHT31;63247;54.300;18.592;2023-04-03T00:17:06;1.93;80.19
67249;SHT31;63247;54.300;18.592;2023-04-03T00:19:31;1.88;80.29
67249;SHT31;63247;54.300;18.592;2023-04-03T00:21:57;1.87;79.84
67249;SHT31;63247;54.300;18.592;2023-04-03T00:24:22;1.85;80.41
67249;SHT31;63247;54.300;18.592;2023-04-03T00:26:48;1.85;80.73
67249;SHT31;63247;54.300;18.592;2023-04-03T00:29:13;1.82;80.49
67249;SHT31;63247;54.300;18.592;2023-04-03T00:31:39;1.85;79.71
67249;SHT31;63247;54.300;18.592;2023-04-03T00:34:05;1.87;79.51
67249;SHT31;63247;54.300;18.592;2023-04-03T00:36:31;1.82;80.13
67249;SHT31;63247;54.300;18.592;2023-04-03T00:38:56;1.80;80.17
67249;SHT31;63247;54.300;18.592;2023-04-03T00:41:22;1.78;80.28
67249;SHT31;63247;54.300;18.592;2023-04-03T00:43:47;1.71;80.02
67249;SHT31;63247;54.300;18.592;2023-04-03T00:46:12;1.70;80.00
67249;SHT31;63247;54.300;18.592;2023-04-03T00:48:46;1.77;78.77
67249;SHT31;63247;54.300;18.592;2023-04-03T00:51:25;1.70;78.91
67249;SHT31;63247;54.300;18.592;2023-04-03T00:53:58;1.66;78.47
67249;SHT31;63247;54.300;18.592;2023-04-03T00:56:26;1.66;78.06
67249;SHT31;63247;54.300;18.592;2023-04-03T00:58:59;1.66;78.27
67249;SHT31;63247;54.300;18.592;2023-04-03T01:01:27;1.59;78.67
67249;SHT31;63247;54.300;18.592;2023-04-03T01:03:53;1.67;77.98
67249;SHT31;63247;54.300;18.592;2023-04-03T01:06:31;1.64;77.79
67249;SHT31;63247;54.300;18.592;2023-04-03T01:08:59;1.59;78.54
67249;SHT31;63247;54.300;18.592;2023-04-03T01:11:25;1.57;78.79
67249;SHT31;63247;54.300;18.592;2023-04-03T01:13:51;1.66;78.14
67249;SHT31;63247;54.300;18.592;2023-04-03T01:16:17;1.68;78.75
67249;SHT31;63247;54.300;18.592;2023-04-03T01:18:43;1.75;78.03
67249;SHT31;63247;54.300;18.592;2023-04-03T01:26:48;1.57;76.68
67249;SHT31;63247;54.300;18.592;2023-04-03T01:29:14;1.53;76.93
67249;SHT31;63247;54.300;18.592;2023-04-03T01:31:50;1.50;77.25
67249;SHT31;63247;54.300;18.592;2023-04-03T01:34:16;1.47;77.17
67249;SHT31;63247;54.300;18.592;2023-04-03T01:36:41;1.46;76.93
67249;SHT31;63247;54.300;18.592;2023-04-03T01:39:08;1.43;75.35
67249;SHT31;63247;54.300;18.592;2023-04-03T01:41:33;1.47;75.47
67249;SHT31;63247;54.300;18.592;2023-04-03T01:43:59;1.50;75.63
67249;SHT31;63247;54.300;18.592;2023-04-03T01:46:24;1.50;76.14
67249;SHT31;63247;54.300;18.592;2023-04-03T01:48:50;1.51;76.27
67249;SHT31;63247;54.300;18.592;2023-04-03T01:51:16;1.49;76.29
67249;SHT31;63247;54.300;18.592;2023-04-03T01:53:41;1.51;76.40
67249;SHT31;63247;54.300;18.592;2023-04-03T01:56:07;1.47;76.92
67249;SHT31;63247;54.300;18.592;2023-04-03T01:58:33;1.39;76.84
67249;SHT31;63247;54.300;18.592;2023-04-03T02:00:58;1.43;76.88
67249;SHT31;63247;54.300;18.592;2023-04-03T02:03:24;1.49;76.49
67249;SHT31;63247;54.300;18.592;2023-04-03T02:05:50;1.44;76.49
67249;SHT31;63247;54.300;18.592;2023-04-03T02:08:16;1.44;76.03
67249;SHT31;63247;54.300;18.592;2023-04-03T02:10:43;1.50;76.20
67249;SHT31;63247;54.300;18.592;2023-04-03T02:13:10;1.40;76.74
67249;SHT31;63247;54.300;18.592;2023-04-03T02:15:38;1.39;77.26
67249;SHT31;63247;54.300;18.592;2023-04-03T02:18:04;1.35;77.79
67249;SHT31;63247;54.300;18.592;2023-04-03T02:20:30;1.32;77.95
67249;SHT31;63247;54.300;18.592;2023-04-03T02:22:55;1.35;77.82
67249;SHT31;63247;54.300;18.592;2023-04-03T02:25:21;1.25;77.51
67249;SHT31;63247;54.300;18.592;2023-04-03T02:27:46;1.39;74.70
67249;SHT31;63247;54.300;18.592;2023-04-03T02:30:12;1.38;75.10
67249;SHT31;63247;54.300;18.592;2023-04-03T02:32:38;1.44;74.52
67249;SHT31;63247;54.300;18.592;2023-04-03T02:35:06;1.51;74.11
67249;SHT31;63247;54.300;18.592;2023-04-03T02:37:31;1.53;72.85
67249;SHT31;63247;54.300;18.592;2023-04-03T02:39:57;1.50;72.23
67249;SHT31;63247;54.300;18.592;2023-04-03T02:42:22;1.53;70.25
67249;SHT31;63247;54.300;18.592;2023-04-03T02:44:48;1.51;70.73
67249;SHT31;63247;54.300;18.592;2023-04-03T02:47:13;1.53;70.51
67249;SHT31;63247;54.300;18.592;2023-04-03T02:49:39;1.49;70.87
67249;SHT31;63247;54.300;18.592;2023-04-03T02:52:04;1.46;70.80
67249;SHT31;63247;54.300;18.592;2023-04-03T02:54:30;1.47;70.91
67249;SHT31;63247;54.300;18.592;2023-04-03T02:56:56;1.51;69.39
67249;SHT31;63247;54.300;18.592;2023-04-03T02:59:22;1.51;70.89
67249;SHT31;63247;54.300;18.592;2023-04-03T03:01:47;1.53;71.64
67249;SHT31;63247;54.300;18.592;2023-04-03T03:04:13;1.59;71.05
67249;SHT31;63247;54.300;18.592;2023-04-03T03:06:38;1.54;70.55
67249;SHT31;63247;54.300;18.592;2023-04-03T03:09:04;1.57;70.21
67249;SHT31;63247;54.300;18.592;2023-04-03T03:11:31;1.56;70.45
67249;SHT31;63247;54.300;18.592;2023-04-03T03:13:56;1.56;70.38
67249;SHT31;63247;54.300;18.592;2023-04-03T03:16:22;1.56;70.95
67249;SHT31;63247;54.300;18.592;2023-04-03T03:18:47;1.51;72.08
67249;SHT31;63247;54.300;18.592;2023-04-03T03:21:13;1.56;72.17
67249;SHT31;63247;54.300;18.592;2023-04-03T03:23:39;1.51;72.27
67249;SHT31;63247;54.300;18.592;2023-04-03T03:26:07;1.50;71.75
67249;SHT31;63247;54.300;18.592;2023-04-03T03:28:34;1.57;71.78
67249;SHT31;63247;54.300;18.592;2023-04-03T03:31:01;1.54;71.95
67249;SHT31;63247;54.300;18.592;2023-04-03T03:33:26;1.49;72.39
67249;SHT31;63247;54.300;18.592;2023-04-03T03:35:53;1.39;72.41
67249;SHT31;63247;54.300;18.592;2023-04-03T03:38:18;1.43;72.82
67249;SHT31;63247;54.300;18.592;2023-04-03T03:40:44;1.36;73.53
67249;SHT31;63247;54.300;18.592;2023-04-03T03:43:09;1.36;74.00
67249;SHT31;63247;54.300;18.592;2023-04-03T03:45:35;1.44;73.75
67249;SHT31;63247;54.300;18.592;2023-04-03T03:48:01;1.43;73.17
67249;SHT31;63247;54.300;18.592;2023-04-03T03:50:27;1.47;72.30
67249;SHT31;63247;54.300;18.592;2023-04-03T03:52:52;1.43;71.48
67249;SHT31;63247;54.300;18.592;2023-04-03T03:55:17;1.43;69.90
67249;SHT31;63247;54.300;18.592;2023-04-03T03:57:43;1.42;70.36
67249;SHT31;63247;54.300;18.592;2023-04-03T04:00:09;1.47;70.63
67249;SHT31;63247;54.300;18.592;2023-04-03T04:02:35;1.50;70.20
67249;SHT31;63247;54.300;18.592;2023-04-03T04:05:00;1.43;70.51
67249;SHT31;63247;54.300;18.592;2023-04-03T04:07:26;1.33;71.97
67249;SHT31;63247;54.300;18.592;2023-04-03T04:09:53;1.32;71.27
67249;SHT31;63247;54.300;18.592;2023-04-03T04:12:19;1.40;70.30
67249;SHT31;63247;54.300;18.592;2023-04-03T04:14:45;1.38;70.81
67249;SHT31;63247;54.300;18.592;2023-04-03T04:17:12;1.35;70.90
67249;SHT31;63247;54.300;18.592;2023-04-03T04:19:38;1.47;71.00
67249;SHT31;63247;54.300;18.592;2023-04-03T04:22:03;1.50;72.25
67249;SHT31;63247;54.300;18.592;2023-04-03T04:24:29;1.53;69.43
67249;SHT31;63247;54.300;18.592;2023-04-03T04:26:54;1.51;68.26
67249;SHT31;63247;54.300;18.592;2023-04-03T04:29:20;1.56;68.26
67249;SHT31;63247;54.300;18.592;2023-04-03T04:31:45;1.57;68.92
67249;SHT31;63247;54.300;18.592;2023-04-03T04:34:11;1.51;69.52
67249;SHT31;63247;54.300;18.592;2023-04-03T04:36:38;1.54;70.51
67249;SHT31;63247;54.300;18.592;2023-04-03T04:39:03;1.49;70.68
67249;SHT31;63247;54.300;18.592;2023-04-03T04:41:29;1.54;71.22
67249;SHT31;63247;54.300;18.592;2023-04-03T04:43:55;1.40;71.22
67249;SHT31;63247;54.300;18.592;2023-04-03T04:46:21;1.51;70.25
67249;SHT31;63247;54.300;18.592;2023-04-03T04:48:47;1.56;70.06
67249;SHT31;63247;54.300;18.592;2023-04-03T04:51:14;1.50;69.82
67249;SHT31;63247;54.300;18.592;2023-04-03T04:53:40;1.56;70.23
67249;SHT31;63247;54.300;18.592;2023-04-03T04:56:06;1.44;70.72
67249;SHT31;63247;54.300;18.592;2023-04-03T04:58:32;1.54;70.59
67249;SHT31;63247;54.300;18.592;2023-04-03T05:00:59;1.56;70.52
67249;SHT31;63247;54.300;18.592;2023-04-03T05:03:25;1.54;71.08
67249;SHT31;63247;54.300;18.592;2023-04-03T05:05:50;1.68;70.31
67249;SHT31;63247;54.300;18.592;2023-04-03T05:08:15;1.63;70.48
67249;SHT31;63247;54.300;18.592;2023-04-03T05:10:41;1.63;70.73
67249;SHT31;63247;54.300;18.592;2023-04-03T05:13:07;1.73;69.90
67249;SHT31;63247;54.300;18.592;2023-04-03T05:15:32;1.67;70.03
67249;SHT31;63247;54.300;18.592;2023-04-03T05:17:58;1.59;70.73
67249;SHT31;63247;54.300;18.592;2023-04-03T05:20:24;1.66;71.19
67249;SHT31;63247;54.300;18.592;2023-04-03T05:22:49;1.68;71.51
67249;SHT31;63247;54.300;18.592;2023-04-03T05:25:15;1.60;71.69
67249;SHT31;63247;54.300;18.592;2023-04-03T05:27:40;1.67;70.63
67249;SHT31;63247;54.300;18.592;2023-04-03T05:30:06;1.66;69.96
67249;SHT31;63247;54.300;18.592;2023-04-03T05:32:32;1.70;69.77
67249;SHT31;63247;54.300;18.592;2023-04-03T05:34:57;1.73;69.88
67249;SHT31;63247;54.300;18.592;2023-04-03T05:37:23;1.68;69.09
67249;SHT31;63247;54.300;18.592;2023-04-03T05:39:48;1.61;69.71
67249;SHT31;63247;54.300;18.592;2023-04-03T05:42:14;1.66;69.59
67249;SHT31;63247;54.300;18.592;2023-04-03T05:44:40;1.82;69.70
67249;SHT31;63247;54.300;18.592;2023-04-03T05:47:06;1.75;70.50
67249;SHT31;63247;54.300;18.592;2023-04-03T05:49:31;1.63;69.89
67249;SHT31;63247;54.300;18.592;2023-04-03T05:51:57;1.59;70.57
67249;SHT31;63247;54.300;18.592;2023-04-03T05:54:27;1.66;69.98
67249;SHT31;63247;54.300;18.592;2023-04-03T05:56:53;1.66;69.99
67249;SHT31;63247;54.300;18.592;2023-04-03T05:59:19;1.74;70.01
67249;SHT31;63247;54.300;18.592;2023-04-03T06:01:45;1.68;69.78
67249;SHT31;63247;54.300;18.592;2023-04-03T06:04:11;1.81;69.56
67249;SHT31;63247;54.300;18.592;2023-04-03T06:06:52;2.24;69.13
67249;SHT31;63247;54.300;18.592;2023-04-03T06:09:20;3.52;67.36
67249;SHT31;63247;54.300;18.592;2023-04-03T06:11:46;3.33;66.29
67249;SHT31;63247;54.300;18.592;2023-04-03T06:14:12;5.58;62.69
67249;SHT31;63247;54.300;18.592;2023-04-03T06:16:38;5.18;62.34
67249;SHT31;63247;54.300;18.592;2023-04-03T06:19:05;3.86;63.85
67249;SHT31;63247;54.300;18.592;2023-04-03T06:21:31;3.28;65.79
67249;SHT31;63247;54.300;18.592;2023-04-03T06:23:56;3.16;66.40
67249;SHT31;63247;54.300;18.592;2023-04-03T06:26:22;2.93;65.36
67249;SHT31;63247;54.300;18.592;2023-04-03T06:28:48;4.66;64.36
67249;SHT31;63247;54.300;18.592;2023-04-03T06:31:13;4.84;60.87
67249;SHT31;63247;54.300;18.592;2023-04-03T06:33:38;4.53;63.87
67249;SHT31;63247;54.300;18.592;2023-04-03T06:36:04;6.89;60.19
67249;SHT31;63247;54.300;18.592;2023-04-03T06:38:31;5.90;61.28
67249;SHT31;63247;54.300;18.592;2023-04-03T06:40:57;8.00;57.49
67249;SHT31;63247;54.300;18.592;2023-04-03T06:43:22;7.60;55.56
67249;SHT31;63247;54.300;18.592;2023-04-03T06:45:48;7.00;58.17
67249;SHT31;63247;54.300;18.592;2023-04-03T06:48:13;7.77;52.46
67249;SHT31;63247;54.300;18.592;2023-04-03T06:50:39;9.73;49.13
67249;SHT31;63247;54.300;18.592;2023-04-03T06:53:05;9.94;48.26
67249;SHT31;63247;54.300;18.592;2023-04-03T06:55:31;6.78;52.21
67249;SHT31;63247;54.300;18.592;2023-04-03T06:57:56;5.21;56.38
67249;SHT31;63247;54.300;18.592;2023-04-03T07:00:22;4.01;59.79
67249;SHT31;63247;54.300;18.592;2023-04-03T07:02:49;3.11;62.09
67249;SHT31;63247;54.300;18.592;2023-04-03T07:05:14;3.21;63.11
67249;SHT31;63247;54.300;18.592;2023-04-03T07:07:40;3.89;62.59
67249;SHT31;63247;54.300;18.592;2023-04-03T07:10:07;5.72;57.18
67249;SHT31;63247;54.300;18.592;2023-04-03T07:12:33;4.08;60.91
67249;SHT31;63247;54.300;18.592;2023-04-03T07:14:59;4.93;60.08
67249;SHT31;63247;54.300;18.592;2023-04-03T07:17:27;4.72;59.77
67249;SHT31;63247;54.300;18.592;2023-04-03T07:19:53;3.53;63.11
67249;SHT31;63247;54.300;18.592;2023-04-03T07:22:18;4.01;62.42
67249;SHT31;63247;54.300;18.592;2023-04-03T07:24:44;3.95;62.01
67249;SHT31;63247;54.300;18.592;2023-04-03T07:27:10;3.97;61.53
67249;SHT31;63247;54.300;18.592;2023-04-03T07:29:35;3.73;61.22
67249;SHT31;63247;54.300;18.592;2023-04-03T07:32:02;4.35;61.08
67249;SHT31;63247;54.300;18.592;2023-04-03T07:34:27;6.07;57.22
67249;SHT31;63247;54.300;18.592;2023-04-03T07:36:53;4.80;59.58
67249;SHT31;63247;54.300;18.592;2023-04-03T07:39:18;3.25;61.66
67249;SHT31;63247;54.300;18.592;2023-04-03T07:41:44;3.05;64.02
67249;SHT31;63247;54.300;18.592;2023-04-03T07:44:09;3.32;64.61
67249;SHT31;63247;54.300;18.592;2023-04-03T07:46:36;3.87;64.08
67249;SHT31;63247;54.300;18.592;2023-04-03T07:49:01;4.12;63.45
67249;SHT31;63247;54.300;18.592;2023-04-03T07:51:27;3.90;63.05
67249;SHT31;63247;54.300;18.592;2023-04-03T07:53:53;3.74;63.32
67249;SHT31;63247;54.300;18.592;2023-04-03T07:56:19;4.01;64.20
67249;SHT31;63247;54.300;18.592;2023-04-03T07:58:45;7.52;55.90
67249;SHT31;63247;54.300;18.592;2023-04-03T08:01:11;6.54;55.32
67249;SHT31;63247;54.300;18.592;2023-04-03T08:03:38;5.83;59.62
67249;SHT31;63247;54.300;18.592;2023-04-03T08:06:05;5.59;57.72
67249;SHT31;63247;54.300;18.592;2023-04-03T08:08:32;5.48;58.77
67249;SHT31;63247;54.300;18.592;2023-04-03T08:10:59;5.66;58.66
67249;SHT31;63247;54.300;18.592;2023-04-03T08:13:25;4.86;61.14
67249;SHT31;63247;54.300;18.592;2023-04-03T08:15:51;5.24;59.79
67249;SHT31;63247;54.300;18.592;2023-04-03T08:18:17;5.03;60.55
67249;SHT31;63247;54.300;18.592;2023-04-03T08:20:44;4.20;62.37
67249;SHT31;63247;54.300;18.592;2023-04-03T08:23:10;3.80;64.26
67249;SHT31;63247;54.300;18.592;2023-04-03T08:25:40;3.43;65.98
67249;SHT31;63247;54.300;18.592;2023-04-03T08:28:07;3.63;64.57
67249;SHT31;63247;54.300;18.592;2023-04-03T08:30:33;3.63;64.48
67249;SHT31;63247;54.300;18.592;2023-04-03T08:33:00;4.34;63.54
67249;SHT31;63247;54.300;18.592;2023-04-03T08:35:27;3.76;65.22
67249;SHT31;63247;54.300;18.592;2023-04-03T08:37:52;7.10;60.34
67249;SHT31;63247;54.300;18.592;2023-04-03T08:40:17;10.06;52.55
67249;SHT31;63247;54.300;18.592;2023-04-03T08:45:49;10.89;50.78
67249;SHT31;63247;54.300;18.592;2023-04-03T08:48:27;11.01;50.28
67249;SHT31;63247;54.300;18.592;2023-04-03T08:50:59;12.00;48.31
67249;SHT31;63247;54.300;18.592;2023-04-03T08:53:29;8.78;50.39
67249;SHT31;63247;54.300;18.592;2023-04-03T08:55:58;7.89;57.62
67249;SHT31;63247;54.300;18.592;2023-04-03T08:58:26;7.27;55.13
67249;SHT31;63247;54.300;18.592;2023-04-03T09:01:00;6.38;58.11
67249;SHT31;63247;54.300;18.592;2023-04-03T09:03:30;6.00;58.34
67249;SHT31;63247;54.300;18.592;2023-04-03T09:06:49;5.69;59.55
67249;SHT31;63247;54.300;18.592;2023-04-03T09:12:03;5.56;61.57
67249;SHT31;63247;54.300;18.592;2023-04-03T09:14:41;8.29;55.75
67249;SHT31;63247;54.300;18.592;2023-04-03T09:17:24;8.53;55.45
67249;SHT31;63247;54.300;18.592;2023-04-03T09:20:02;6.62;58.92
67249;SHT31;63247;54.300;18.592;2023-04-03T09:22:33;8.88;55.70
67249;SHT31;63247;54.300;18.592;2023-04-03T09:25:17;7.58;59.94
67249;SHT31;63247;54.300;18.592;2023-04-03T09:27:44;7.88;57.37
67249;SHT31;63247;54.300;18.592;2023-04-03T09:30:15;8.07;58.49
67249;SHT31;63247;54.300;18.592;2023-04-03T09:32:43;10.12;55.10
67249;SHT31;63247;54.300;18.592;2023-04-03T09:35:29;8.77;56.59
67249;SHT31;63247;54.300;18.592;2023-04-03T09:38:16;7.44;58.62
67249;SHT31;63247;54.300;18.592;2023-04-03T09:40:49;7.85;59.47
67249;SHT31;63247;54.300;18.592;2023-04-03T09:43:26;7.83;58.87
67249;SHT31;63247;54.300;18.592;2023-04-03T09:45:52;8.96;56.57
67249;SHT31;63247;54.300;18.592;2023-04-03T09:48:23;11.63;52.86
67249;SHT31;63247;54.300;18.592;2023-04-03T09:53:39;7.81;59.03
67249;SHT31;63247;54.300;18.592;2023-04-03T09:56:19;5.99;63.62
67249;SHT31;63247;54.300;18.592;2023-04-03T09:58:50;5.83;64.99
67249;SHT31;63247;54.300;18.592;2023-04-03T10:01:37;5.68;66.16
67249;SHT31;63247;54.300;18.592;2023-04-03T10:04:18;7.58;62.76
67249;SHT31;63247;54.300;18.592;2023-04-03T10:06:52;9.18;57.12
67249;SHT31;63247;54.300;18.592;2023-04-03T10:12:09;9.60;55.83
67249;SHT31;63247;54.300;18.592;2023-04-03T10:18:12;8.44;58.10
67249;SHT31;63247;54.300;18.592;2023-04-03T10:20:43;7.02;62.11
67249;SHT31;63247;54.300;18.592;2023-04-03T10:24:08;5.86;65.49
67249;SHT31;63247;54.300;18.592;2023-04-03T10:26:33;4.69;68.86
67249;SHT31;63247;54.300;18.592;2023-04-03T10:31:45;4.05;72.58
67249;SHT31;63247;54.300;18.592;2023-04-03T10:34:21;3.86;74.46
67249;SHT31;63247;54.300;18.592;2023-04-03T10:42:25;4.00;73.13
67249;SHT31;63247;54.300;18.592;2023-04-03T10:53:12;4.25;70.80
67249;SHT31;63247;54.300;18.592;2023-04-03T10:58:32;4.86;71.41
67249;SHT31;63247;54.300;18.592;2023-04-03T11:01:07;4.75;69.22
67249;SHT31;63247;54.300;18.592;2023-04-03T11:03:55;4.69;69.83
67249;SHT31;63247;54.300;18.592;2023-04-03T11:06:25;4.55;70.78
67249;SHT31;63247;54.300;18.592;2023-04-03T11:09:01;4.99;70.30
67249;SHT31;63247;54.300;18.592;2023-04-03T11:11:34;4.45;71.14
67249;SHT31;63247;54.300;18.592;2023-04-03T11:14:46;5.01;69.56
67249;SHT31;63247;54.300;18.592;2023-04-03T11:16:51;4.93;69.68
67249;SHT31;63247;54.300;18.592;2023-04-03T11:19:21;5.03;70.92
67249;SHT31;63247;54.300;18.592;2023-04-03T11:22:06;4.62;70.36
67249;SHT31;63247;54.300;18.592;2023-04-03T11:24:36;4.73;68.35
67249;SHT31;63247;54.300;18.592;2023-04-03T11:27:04;5.37;66.64
67249;SHT31;63247;54.300;18.592;2023-04-03T11:29:38;5.38;66.08
67249;SHT31;63247;54.300;18.592;2023-04-03T11:34:51;5.92;66.25
67249;SHT31;63247;54.300;18.592;2023-04-03T11:37:35;5.32;67.43
67249;SHT31;63247;54.300;18.592;2023-04-03T11:40:45;4.41;68.58
67249;SHT31;63247;54.300;18.592;2023-04-03T11:42:55;4.41;68.63
67249;SHT31;63247;54.300;18.592;2023-04-03T11:50:47;4.27;71.15
67249;SHT31;63247;54.300;18.592;2023-04-03T11:58:15;3.74;72.19
67249;SHT31;63247;54.300;18.592;2023-04-03T12:35:03;5.31;62.98
67249;SHT31;63247;54.300;18.592;2023-04-03T12:46:09;4.35;66.03
67249;SHT31;63247;54.300;18.592;2023-04-03T12:51:40;5.82;65.44
67249;SHT31;63247;54.300;18.592;2023-04-03T12:54:31;5.18;64.83
67249;SHT31;63247;54.300;18.592;2023-04-03T13:02:50;4.93;63.25
67249;SHT31;63247;54.300;18.592;2023-04-03T13:05:19;5.59;63.73
67249;SHT31;63247;54.300;18.592;2023-04-03T13:07:49;5.87;63.38
67249;SHT31;63247;54.300;18.592;2023-04-03T13:10:18;5.18;64.62
67249;SHT31;63247;54.300;18.592;2023-04-03T13:13:13;4.65;65.44
67249;SHT31;63247;54.300;18.592;2023-04-03T13:15:49;4.41;67.53
67249;SHT31;63247;54.300;18.592;2023-04-03T13:20:55;5.20;66.02
67249;SHT31;63247;54.300;18.592;2023-04-03T13:23:22;5.39;66.13
67249;SHT31;63247;54.300;18.592;2023-04-03T13:25:49;5.24;67.28
67249;SHT31;63247;54.300;18.592;2023-04-03T13:28:20;4.46;69.63
67249;SHT31;63247;54.300;18.592;2023-04-03T13:33:27;4.00;73.41
67249;SHT31;63247;54.300;18.592;2023-04-03T13:36:08;3.76;70.97
67249;SHT31;63247;54.300;18.592;2023-04-03T13:38:36;3.86;69.27
67249;SHT31;63247;54.300;18.592;2023-04-03T13:41:05;4.22;69.25
67249;SHT31;63247;54.300;18.592;2023-04-03T13:43:46;4.31;67.94
67249;SHT31;63247;54.300;18.592;2023-04-03T13:48:49;4.65;66.49
67249;SHT31;63247;54.300;18.592;2023-04-03T13:53:51;4.73;67.04
67249;SHT31;63247;54.300;18.592;2023-04-03T13:56:35;4.75;66.65
67249;SHT31;63247;54.300;18.592;2023-04-03T14:01:53;4.79;67.67
67249;SHT31;63247;54.300;18.592;2023-04-03T14:04:28;4.41;67.01
67249;SHT31;63247;54.300;18.592;2023-04-03T14:06:54;4.11;67.13
67249;SHT31;63247;54.300;18.592;2023-04-03T14:09:21;4.31;64.82
67249;SHT31;63247;54.300;18.592;2023-04-03T14:11:49;4.15;66.14
67249;SHT31;63247;54.300;18.592;2023-04-03T14:14:36;4.27;66.39
67249;SHT31;63247;54.300;18.592;2023-04-03T14:17:13;4.01;68.09
67249;SHT31;63247;54.300;18.592;2023-04-03T14:19:39;4.08;68.13
67249;SHT31;63247;54.300;18.592;2023-04-03T14:22:14;4.22;67.78
67249;SHT31;63247;54.300;18.592;2023-04-03T14:24:40;3.93;67.91
67249;SHT31;63247;54.300;18.592;2023-04-03T14:27:14;3.45;69.48
67249;SHT31;63247;54.300;18.592;2023-04-03T14:29:40;3.60;68.09
67249;SHT31;63247;54.300;18.592;2023-04-03T14:32:06;3.45;68.13
67249;SHT31;63247;54.300;18.592;2023-04-03T14:34:31;3.60;67.31
67249;SHT31;63247;54.300;18.592;2023-04-03T14:36:57;3.98;66.87
67249;SHT31;63247;54.300;18.592;2023-04-03T14:39:22;4.24;64.69
67249;SHT31;63247;54.300;18.592;2023-04-03T14:41:48;3.81;64.66
67249;SHT31;63247;54.300;18.592;2023-04-03T14:44:13;3.63;65.64
67249;SHT31;63247;54.300;18.592;2023-04-03T14:46:42;3.76;65.86
67249;SHT31;63247;54.300;18.592;2023-04-03T14:49:15;4.30;66.27
67249;SHT31;63247;54.300;18.592;2023-04-03T14:51:43;4.68;65.91
67249;SHT31;63247;54.300;18.592;2023-04-03T14:54:18;4.51;66.08
67249;SHT31;63247;54.300;18.592;2023-04-03T14:56:44;4.32;68.23
67249;SHT31;63247;54.300;18.592;2023-04-03T14:59:12;4.01;69.03
67249;SHT31;63247;54.300;18.592;2023-04-03T15:01:39;3.76;67.73
67249;SHT31;63247;54.300;18.592;2023-04-03T15:04:12;3.42;67.78
67249;SHT31;63247;54.300;18.592;2023-04-03T15:06:38;3.33;67.79
67249;SHT31;63247;54.300;18.592;2023-04-03T15:09:04;3.31;68.25
67249;SHT31;63247;54.300;18.592;2023-04-03T15:11:29;3.35;68.59
67249;SHT31;63247;54.300;18.592;2023-04-03T15:13:55;3.38;67.91
67249;SHT31;63247;54.300;18.592;2023-04-03T15:16:21;3.46;67.44
67249;SHT31;63247;54.300;18.592;2023-04-03T15:18:47;3.53;67.31
67249;SHT31;63247;54.300;18.592;2023-04-03T15:21:12;3.58;67.54
67249;SHT31;63247;54.300;18.592;2023-04-03T15:23:38;3.33;64.46
67249;SHT31;63247;54.300;18.592;2023-04-03T15:26:04;3.14;64.74
67249;SHT31;63247;54.300;18.592;2023-04-03T15:28:41;2.98;66.24
67249;SHT31;63247;54.300;18.592;2023-04-03T15:31:07;2.98;66.61
67249;SHT31;63247;54.300;18.592;2023-04-03T15:33:34;3.04;66.58
67249;SHT31;63247;54.300;18.592;2023-04-03T15:36:00;3.15;66.48
67249;SHT31;63247;54.300;18.592;2023-04-03T15:38:25;3.25;66.38
67249;SHT31;63247;54.300;18.592;2023-04-03T15:40:51;3.40;66.28
67249;SHT31;63247;54.300;18.592;2023-04-03T15:43:16;3.38;67.69
67249;SHT31;63247;54.300;18.592;2023-04-03T15:45:43;3.01;69.12
67249;SHT31;63247;54.300;18.592;2023-04-03T15:48:09;2.93;70.06
67249;SHT31;63247;54.300;18.592;2023-04-03T15:50:36;2.87;71.06
67249;SHT31;63247;54.300;18.592;2023-04-03T15:53:02;2.76;71.88
67249;SHT31;63247;54.300;18.592;2023-04-03T15:55:32;2.70;73.04
67249;SHT31;63247;54.300;18.592;2023-04-03T15:57:58;2.63;73.79
67249;SHT31;63247;54.300;18.592;2023-04-03T16:00:25;2.60;74.87
67249;SHT31;63247;54.300;18.592;2023-04-03T16:02:53;2.58;75.87
67249;SHT31;63247;54.300;18.592;2023-04-03T16:05:20;2.60;76.33
67249;SHT31;63247;54.300;18.592;2023-04-03T16:07:45;2.56;75.46
67249;SHT31;63247;54.300;18.592;2023-04-03T16:10:13;2.50;75.84
67249;SHT31;63247;54.300;18.592;2023-04-03T16:12:38;2.50;76.25
67249;SHT31;63247;54.300;18.592;2023-04-03T16:15:05;2.57;76.11
67249;SHT31;63247;54.300;18.592;2023-04-03T16:17:32;2.52;76.39
67249;SHT31;63247;54.300;18.592;2023-04-03T16:19:58;2.56;76.34
67249;SHT31;63247;54.300;18.592;2023-04-03T16:22:25;2.45;73.61
67249;SHT31;63247;54.300;18.592;2023-04-03T16:24:51;2.47;71.41
67249;SHT31;63247;54.300;18.592;2023-04-03T16:27:16;2.40;70.77
67249;SHT31;63247;54.300;18.592;2023-04-03T16:29:42;2.37;70.80
67249;SHT31;63247;54.300;18.592;2023-04-03T16:32:07;2.35;70.66
67249;SHT31;63247;54.300;18.592;2023-04-03T16:34:33;2.30;70.79
67249;SHT31;63247;54.300;18.592;2023-04-03T16:36:59;2.24;68.75
67249;SHT31;63247;54.300;18.592;2023-04-03T16:39:25;2.16;69.50
67249;SHT31;63247;54.300;18.592;2023-04-03T16:41:50;2.19;69.37
67249;SHT31;63247;54.300;18.592;2023-04-03T16:44:16;2.26;68.94
67249;SHT31;63247;54.300;18.592;2023-04-03T16:46:41;2.26;69.47
67249;SHT31;63247;54.300;18.592;2023-04-03T16:49:07;2.28;70.86
67249;SHT31;63247;54.300;18.592;2023-04-03T16:51:32;2.22;72.91
67249;SHT31;63247;54.300;18.592;2023-04-03T16:53:58;2.01;72.61
67249;SHT31;63247;54.300;18.592;2023-04-03T16:56:24;1.88;71.17
67249;SHT31;63247;54.300;18.592;2023-04-03T16:58:52;1.82;70.97
67249;SHT31;63247;54.300;18.592;2023-04-03T17:01:21;1.88;70.60
67249;SHT31;63247;54.300;18.592;2023-04-03T17:03:48;1.82;70.39
67249;SHT31;63247;54.300;18.592;2023-04-03T17:06:21;1.71;70.71
67249;SHT31;63247;54.300;18.592;2023-04-03T17:08:49;1.57;71.84
67249;SHT31;63247;54.300;18.592;2023-04-03T17:11:15;1.54;72.24
67249;SHT31;63247;54.300;18.592;2023-04-03T17:13:40;1.47;71.73
67249;SHT31;63247;54.300;18.592;2023-04-03T17:16:09;1.56;71.21
67249;SHT31;63247;54.300;18.592;2023-04-03T17:18:35;1.47;71.25
67249;SHT31;63247;54.300;18.592;2023-04-03T17:21:02;1.66;70.63
67249;SHT31;63247;54.300;18.592;2023-04-03T17:23:28;1.67;70.93
67249;SHT31;63247;54.300;18.592;2023-04-03T17:25:57;1.70;71.39
67249;SHT31;63247;54.300;18.592;2023-04-03T17:28:22;1.78;71.31
67249;SHT31;63247;54.300;18.592;2023-04-03T17:30:56;1.77;71.51
67249;SHT31;63247;54.300;18.592;2023-04-03T17:33:23;1.77;71.08